createdAt,value
2018-12-23T00:01:21.927Z,2.58
2018-12-23T00:03:50.952Z,2.92
2018-12-23T00:06:19.543Z,2.47
2018-12-23T00:08:48.063Z,3.67
2018-12-23T00:11:16.446Z,2.75
2018-12-23T00:13:44.936Z,2.15
2018-12-23T00:16:13.364Z,2.35
2018-12-23T00:18:42.173Z,3.60
2018-12-23T00:21:10.573Z,2.52
2018-12-23T00:23:39.178Z,2.47
2018-12-23T00:26:07.667Z,3.25
2018-12-23T00:28:36.380Z,3.15
2018-12-23T00:31:05.090Z,2.15
2018-12-23T00:33:33.720Z,2.90
2018-12-23T00:36:02.207Z,2.08
2018-12-23T00:38:30.732Z,2.00
2018-12-23T00:41:00.368Z,1.52
2018-12-23T00:43:28.717Z,1.90
2018-12-23T00:45:57.192Z,2.15
2018-12-23T00:48:25.988Z,1.70
2018-12-23T00:50:54.614Z,2.47
2018-12-23T00:53:23.018Z,2.35
2018-12-23T00:55:52.696Z,2.25
2018-12-23T00:58:21.496Z,2.92
2018-12-23T01:00:50.304Z,3.05
2018-12-23T01:03:18.952Z,3.47
2018-12-23T01:05:47.922Z,2.20
2018-12-23T01:08:16.245Z,3.62
2018-12-23T01:10:44.809Z,3.15
2018-12-23T01:13:13.579Z,3.67
2018-12-23T01:15:41.992Z,3.20
2018-12-23T01:18:10.508Z,3.92
2018-12-23T01:20:39.124Z,3.87
2018-12-23T01:23:08.290Z,4.15
2018-12-23T01:25:36.683Z,3.20
2018-12-23T01:28:05.249Z,2.87
2018-12-23T01:30:34.019Z,2.87
2018-12-23T01:33:03.123Z,2.90
2018-12-23T01:35:37.174Z,3.42
2018-12-23T01:38:02.612Z,3.00
2018-12-23T01:40:31.057Z,3.15
2018-12-23T01:42:59.628Z,3.52
2018-12-23T01:45:28.265Z,3.80
2018-12-23T01:47:56.777Z,3.92
2018-12-23T01:50:25.190Z,3.42
2018-12-23T01:52:54.479Z,3.27
2018-12-23T01:55:23.807Z,3.67
2018-12-23T01:57:53.121Z,3.00
2018-12-23T02:00:22.107Z,3.05
2018-12-23T02:02:50.525Z,2.85
2018-12-23T02:05:19.209Z,3.45
2018-12-23T02:07:48.135Z,2.67
2018-12-23T02:10:16.534Z,4.30
2018-12-23T02:12:45.146Z,3.12
2018-12-23T02:15:13.966Z,2.92
2018-12-23T02:17:42.322Z,3.37
2018-12-23T02:20:10.719Z,3.65
2018-12-23T02:22:39.078Z,3.08
2018-12-23T02:25:07.552Z,4.12
2018-12-23T02:27:37.213Z,3.83
2018-12-23T02:30:06.925Z,4.00
2018-12-23T02:32:35.691Z,3.47
2018-12-23T02:35:04.740Z,3.22
2018-12-23T02:37:33.221Z,4.05
2018-12-23T02:40:01.637Z,3.20
2018-12-23T02:42:30.497Z,3.35
2018-12-23T02:44:59.264Z,3.30
2018-12-23T02:47:27.813Z,3.40
2018-12-23T02:49:56.278Z,3.15
2018-12-23T02:52:24.735Z,3.52
2018-12-23T02:54:54.234Z,3.27
2018-12-23T02:57:23.677Z,3.55
2018-12-23T02:59:52.039Z,3.33
2018-12-23T03:02:20.888Z,3.35
2018-12-23T03:04:49.635Z,3.47
2018-12-23T03:07:18.013Z,3.10
2018-12-23T03:09:47.212Z,3.62
2018-12-23T03:12:15.594Z,4.45
2018-12-23T03:14:43.966Z,4.12
2018-12-23T03:17:12.439Z,3.87
2018-12-23T03:19:41.087Z,4.72
2018-12-23T03:22:10.465Z,4.30
2018-12-23T03:24:38.810Z,3.70
2018-12-23T03:27:08.104Z,3.08
2018-12-23T03:29:36.490Z,3.70
2018-12-23T03:32:05.498Z,3.87
2018-12-23T03:34:33.829Z,4.15
2018-12-23T03:37:03.107Z,3.42
2018-12-23T03:39:31.599Z,4.00
2018-12-23T03:41:59.963Z,3.92
2018-12-23T03:44:28.310Z,4.40
2018-12-23T03:46:56.626Z,3.33
2018-12-23T03:49:25.049Z,4.03
2018-12-23T03:51:53.556Z,3.92
2018-12-23T03:54:23.153Z,4.20
2018-12-23T03:56:51.567Z,5.15
2018-12-23T03:59:20.055Z,5.03
2018-12-23T04:01:48.389Z,4.85
2018-12-23T04:04:16.767Z,4.22
2018-12-23T04:06:45.147Z,4.03
2018-12-23T04:09:14.510Z,4.45
2018-12-23T04:11:43.480Z,4.90
2018-12-23T04:14:12.010Z,3.70
2018-12-23T04:16:40.529Z,4.67
2018-12-23T04:19:09.431Z,5.45
2018-12-23T04:21:38.367Z,4.47
2018-12-23T04:24:06.770Z,4.40
2018-12-23T04:26:35.126Z,5.03
2018-12-23T04:29:03.599Z,4.25
2018-12-23T04:31:31.967Z,4.40
2018-12-23T04:34:00.552Z,4.17
2018-12-23T04:36:34.048Z,4.03
2018-12-23T04:38:59.903Z,3.90
2018-12-23T04:41:28.563Z,3.92
2018-12-23T04:43:57.011Z,4.95
2018-12-23T04:46:25.379Z,4.58
2018-12-23T04:48:53.725Z,5.12
2018-12-23T04:51:22.082Z,4.87
2018-12-23T04:53:50.454Z,4.15
2018-12-23T04:56:19.076Z,4.33
2018-12-23T04:58:47.684Z,4.55
2018-12-23T05:01:16.283Z,4.35
2018-12-23T05:03:44.751Z,4.62
2018-12-23T05:06:13.126Z,4.87
2018-12-23T05:08:41.541Z,5.17
2018-12-23T05:11:09.976Z,6.08
2018-12-23T05:13:38.861Z,4.85
2018-12-23T05:16:07.331Z,4.67
2018-12-23T05:18:37.087Z,3.42
2018-12-23T05:21:05.457Z,4.92
2018-12-23T05:23:34.172Z,6.42
2018-12-23T05:26:02.862Z,5.87
2018-12-23T05:28:31.225Z,5.78
2018-12-23T05:31:00.861Z,5.53
2018-12-23T05:33:29.234Z,6.90
2018-12-23T05:35:57.921Z,6.72
2018-12-23T05:38:26.312Z,7.72
2018-12-23T05:41:01.157Z,8.18
2018-12-23T05:43:29.532Z,8.28
2018-12-23T05:45:59.309Z,7.92
2018-12-23T05:48:27.696Z,8.93
2018-12-23T05:50:56.030Z,7.72
2018-12-23T05:53:24.411Z,8.55
2018-12-23T05:56:01.763Z,8.10
2018-12-23T05:58:30.189Z,9.33
2018-12-23T06:00:59.300Z,8.03
2018-12-23T06:03:27.659Z,9.10
2018-12-23T06:05:56.364Z,8.90
2018-12-23T06:08:24.774Z,8.48
2018-12-23T06:10:53.203Z,8.25
2018-12-23T06:13:21.550Z,7.83
2018-12-23T06:15:49.918Z,7.62
2018-12-23T06:18:19.149Z,8.63
2018-12-23T06:20:47.512Z,8.43
2018-12-23T06:23:16.438Z,7.90
2018-12-23T06:25:45.202Z,8.73
2018-12-23T06:28:13.651Z,6.75
2018-12-23T06:30:42.017Z,7.15
2018-12-23T06:33:10.675Z,7.70
2018-12-23T06:35:39.019Z,7.20
2018-12-23T06:38:07.800Z,7.03
2018-12-23T06:40:37.048Z,6.22
2018-12-23T06:43:06.055Z,7.25
2018-12-23T06:45:36.268Z,5.53
2018-12-23T06:48:04.851Z,8.63
2018-12-23T06:50:33.230Z,6.53
2018-12-23T06:53:01.908Z,6.22
2018-12-23T06:55:30.419Z,7.20
2018-12-23T06:57:59.053Z,6.97
2018-12-23T07:00:28.533Z,6.83
2018-12-23T07:02:56.860Z,6.72
2018-12-23T07:05:25.210Z,6.97
2018-12-23T07:07:53.632Z,7.40
2018-12-23T07:10:22.082Z,7.45
2018-12-23T07:12:50.431Z,7.50
2018-12-23T07:15:18.841Z,5.75
2018-12-23T07:17:47.194Z,6.70
2018-12-23T07:20:15.613Z,6.85
2018-12-23T07:22:44.006Z,6.03
2018-12-23T07:25:12.762Z,5.90
2018-12-23T07:27:41.320Z,7.08
2018-12-23T07:30:09.962Z,6.65
2018-12-23T07:32:38.809Z,5.87
2018-12-23T07:35:07.147Z,5.65
2018-12-23T07:37:35.563Z,6.25
2018-12-23T07:40:04.217Z,6.85
2018-12-23T07:42:32.744Z,6.03
2018-12-23T07:45:01.120Z,5.37
2018-12-23T07:47:29.912Z,7.42
2018-12-23T07:49:58.311Z,7.22
2018-12-23T07:52:26.693Z,6.55
2018-12-23T07:54:56.297Z,6.50
2018-12-23T07:57:24.631Z,7.15
2018-12-23T07:59:53.095Z,7.67
2018-12-23T08:02:21.506Z,7.30
2018-12-23T08:04:49.972Z,7.22
2018-12-23T08:07:18.401Z,7.87
2018-12-23T08:09:47.230Z,9.43
2018-12-23T08:12:15.566Z,7.90
2018-12-23T08:14:43.973Z,9.13
2018-12-23T08:17:12.413Z,9.55
2018-12-23T08:19:41.221Z,9.05
2018-12-23T08:22:10.049Z,8.00
2018-12-23T08:24:38.750Z,8.98
2018-12-23T08:27:08.077Z,8.28
2018-12-23T08:29:36.519Z,8.18
2018-12-23T08:32:04.960Z,9.55
2018-12-23T08:34:33.458Z,7.83
2018-12-23T08:37:02.506Z,7.45
2018-12-23T08:39:31.047Z,8.95
2018-12-23T08:45:18.412Z,7.85
2018-12-23T08:48:05.918Z,9.23
2018-12-23T08:50:53.088Z,10.30
2018-12-23T08:53:39.887Z,10.28
2018-12-23T08:56:26.795Z,12.23
2018-12-23T08:59:14.276Z,10.50
2018-12-23T09:02:01.048Z,14.65
2018-12-23T09:04:47.981Z,11.65
2018-12-23T09:07:35.669Z,11.03
2018-12-23T09:10:23.214Z,14.47
2018-12-23T09:13:10.016Z,11.83
2018-12-23T09:15:57.666Z,11.38
2018-12-23T09:18:45.839Z,12.30
2018-12-23T09:21:33.332Z,12.43
2018-12-23T09:24:20.689Z,11.60
2018-12-23T09:27:09.796Z,11.68
2018-12-23T09:29:57.232Z,11.33
2018-12-23T09:32:44.312Z,11.28
2018-12-23T09:35:31.529Z,10.72
2018-12-23T09:38:18.489Z,11.28
2018-12-23T09:41:05.577Z,12.88
2018-12-23T09:43:52.424Z,11.95
2018-12-23T09:46:40.550Z,12.15
2018-12-23T09:49:27.898Z,11.50
2018-12-23T09:52:14.856Z,12.55
2018-12-23T09:55:01.739Z,12.68
2018-12-23T09:57:49.365Z,12.47
2018-12-23T10:03:26.492Z,12.35
2018-12-23T10:06:13.270Z,12.25
2018-12-23T10:09:00.045Z,12.78
2018-12-23T10:14:37.551Z,13.65
2018-12-23T10:17:24.496Z,12.70
2018-12-23T10:19:54.549Z,13.15
2018-12-23T10:22:43.173Z,12.58
2018-12-23T10:25:31.981Z,11.48
2018-12-23T10:28:19.153Z,12.63
2018-12-23T10:31:05.835Z,13.00
2018-12-23T10:33:52.759Z,12.18
2018-12-23T10:36:40.016Z,12.43
2018-12-23T10:39:27.199Z,11.93
2018-12-23T10:42:14.679Z,12.55
2018-12-23T10:45:02.076Z,12.35
2018-12-23T10:47:49.936Z,11.18
2018-12-23T10:50:36.999Z,11.65
2018-12-23T10:53:24.113Z,11.55
2018-12-23T10:56:11.069Z,11.25
2018-12-23T10:58:58.419Z,12.28
2018-12-23T11:01:45.306Z,10.95
2018-12-23T11:04:32.343Z,11.28
2018-12-23T11:07:19.042Z,10.40
2018-12-23T11:10:07.329Z,9.88
2018-12-23T11:12:54.225Z,12.03
2018-12-23T11:15:41.513Z,12.03
2018-12-23T11:18:11.169Z,10.98
2018-12-23T11:20:58.828Z,10.28
2018-12-23T13:26:50.651Z,4.50
2018-12-23T13:29:37.304Z,5.20
2018-12-23T13:32:24.869Z,5.40
2018-12-23T13:38:01.034Z,5.28
2018-12-23T13:40:47.831Z,4.92
2018-12-23T13:43:34.911Z,5.60
2018-12-23T13:49:11.418Z,4.80
2018-12-23T13:51:58.090Z,3.60
2018-12-23T13:57:48.794Z,3.80
2018-12-23T14:00:36.145Z,3.45
2018-12-23T14:03:23.720Z,3.50
2018-12-23T14:06:10.477Z,3.87
2018-12-23T14:08:57.272Z,4.45
2018-12-23T14:11:44.308Z,4.28
2018-12-23T14:14:31.108Z,4.47
2018-12-23T14:17:18.080Z,4.22
2018-12-23T14:20:05.006Z,4.30
2018-12-23T14:22:52.118Z,4.45
2018-12-23T14:25:39.819Z,4.28
2018-12-23T14:28:26.695Z,4.33
2018-12-23T14:31:13.551Z,5.05
2018-12-23T14:36:51.466Z,5.15
2018-12-23T14:39:39.123Z,5.37
2018-12-23T14:42:25.925Z,5.03
2018-12-23T14:45:13.452Z,6.25
2018-12-23T14:48:00.297Z,6.33
2018-12-23T14:50:47.853Z,7.25
2018-12-23T14:53:34.528Z,6.28
2018-12-23T14:56:21.424Z,6.83
2018-12-23T14:59:08.540Z,7.47
2018-12-23T15:01:55.445Z,7.37
2018-12-23T15:04:42.384Z,6.70
2018-12-23T15:07:29.176Z,6.60
2018-12-23T15:10:16.862Z,7.03
2018-12-23T15:15:53.452Z,8.78
2018-12-23T15:18:40.098Z,8.00
2018-12-23T15:21:27.356Z,8.95
2018-12-23T15:24:14.872Z,7.65
2018-12-23T15:27:01.764Z,7.90
2018-12-23T15:29:48.597Z,8.15
2018-12-23T15:32:35.612Z,8.88
2018-12-23T15:35:22.294Z,7.80
2018-12-23T15:38:09.038Z,8.25
2018-12-23T15:40:56.464Z,9.05
2018-12-23T15:43:43.429Z,9.55
2018-12-23T15:46:30.243Z,10.23
2018-12-23T15:49:18.288Z,10.75
2018-12-23T15:52:04.885Z,9.18
2018-12-23T15:54:51.964Z,9.63
2018-12-23T15:57:39.427Z,9.63
2018-12-23T16:03:20.245Z,12.30
2018-12-23T16:06:07.616Z,8.75
2018-12-23T16:08:54.598Z,9.35
2018-12-23T16:11:41.782Z,9.40
2018-12-23T16:14:28.585Z,9.78
2018-12-23T16:17:15.588Z,10.30
2018-12-23T16:20:03.001Z,10.13
2018-12-23T16:22:50.505Z,11.00
2018-12-23T16:25:37.735Z,9.08
2018-12-23T16:28:24.782Z,10.53
2018-12-23T16:31:09.469Z,11.43
2018-12-23T16:33:57.025Z,11.38
2018-12-23T16:36:43.932Z,13.00
2018-12-23T16:39:30.595Z,11.60
2018-12-23T16:42:17.450Z,13.20
2018-12-23T16:45:04.412Z,12.68
2018-12-23T16:47:52.377Z,15.85
2018-12-23T16:50:39.150Z,14.47
2018-12-23T16:53:26.281Z,17.65
2018-12-23T16:56:13.247Z,12.60
2018-12-23T16:59:00.111Z,15.55
2018-12-23T17:04:32.835Z,17.27
2018-12-23T17:10:13.432Z,19.90
2018-12-23T17:13:00.409Z,13.30
2018-12-23T17:15:47.610Z,16.37
2018-12-23T17:21:24.012Z,10.70
2018-12-23T17:24:10.846Z,12.98
2018-12-23T17:26:58.481Z,7.67
2018-12-23T17:29:45.475Z,6.83
2018-12-23T17:32:32.306Z,5.03
2018-12-23T17:35:19.968Z,5.22
2018-12-23T17:38:07.333Z,4.60
2018-12-23T17:40:53.876Z,4.53
2018-12-23T17:43:40.723Z,3.83
2018-12-23T17:46:27.570Z,4.83
2018-12-23T17:49:14.542Z,4.67
2018-12-23T17:52:01.554Z,5.53
2018-12-23T17:57:52.004Z,6.50
2018-12-23T18:00:39.065Z,7.50
2018-12-23T18:03:26.729Z,6.90
2018-12-23T18:06:13.831Z,5.85
2018-12-23T18:09:00.576Z,6.72
2018-12-23T18:11:47.575Z,7.53
2018-12-23T18:14:34.851Z,8.13
2018-12-23T18:17:21.833Z,7.05
2018-12-23T18:20:09.466Z,7.25
2018-12-23T18:22:57.118Z,7.55
2018-12-23T18:25:44.029Z,7.67
2018-12-23T18:28:31.135Z,7.45
2018-12-23T18:31:17.981Z,5.47
2018-12-23T18:34:05.062Z,4.75
2018-12-23T18:39:41.784Z,3.27
2018-12-23T18:42:28.410Z,3.55
2018-12-23T18:45:19.258Z,3.47
2018-12-23T18:48:06.027Z,3.55
2018-12-23T18:50:54.008Z,2.98
2018-12-23T18:53:41.061Z,3.47
2018-12-23T18:56:28.802Z,4.60
2018-12-23T18:59:16.036Z,4.12
2018-12-23T19:02:03.991Z,3.42
2018-12-23T19:04:51.147Z,3.35
2018-12-23T19:07:37.810Z,4.42
2018-12-23T19:15:55.893Z,4.12
2018-12-23T19:18:42.936Z,5.12
2018-12-23T19:21:30.479Z,5.67
2018-12-23T19:24:17.210Z,4.97
2018-12-23T19:27:03.991Z,3.17
2018-12-23T19:29:51.117Z,3.85
2018-12-23T19:32:37.750Z,3.52
2018-12-23T19:35:25.038Z,3.83
2018-12-23T19:38:11.887Z,3.42
2018-12-23T19:40:59.137Z,3.22
2018-12-23T19:46:34.553Z,3.87
2018-12-23T21:00:27.263Z,6.12
2018-12-23T21:34:06.971Z,4.67
2018-12-23T21:37:00.485Z,3.55
2018-12-23T21:58:39.912Z,2.27
2018-12-23T22:04:40.914Z,1.98
2018-12-23T22:07:27.916Z,2.33
2018-12-23T22:10:15.147Z,2.60
2018-12-23T22:13:02.691Z,2.60
2018-12-23T22:15:49.617Z,2.70
2018-12-23T22:18:36.945Z,2.42
2018-12-23T22:21:23.887Z,2.40
2018-12-23T22:24:11.532Z,3.25
2018-12-23T22:26:58.578Z,3.10
2018-12-23T22:35:18.473Z,2.65
2018-12-23T22:38:04.964Z,3.40
2018-12-23T22:40:51.939Z,5.00
2018-12-23T22:43:38.941Z,4.47
2018-12-23T22:46:25.772Z,4.40
2018-12-23T22:49:12.624Z,5.25
2018-12-23T22:52:00.841Z,4.62
2018-12-23T22:54:47.439Z,4.00
2018-12-23T22:57:34.372Z,4.50
2018-12-23T23:00:23.886Z,3.87
2018-12-23T23:03:11.587Z,4.70
2018-12-23T23:08:48.000Z,3.47
2018-12-23T23:11:35.676Z,2.87
2018-12-23T23:14:23.020Z,2.30
2018-12-23T23:17:09.637Z,2.90
2018-12-23T23:19:56.192Z,2.17
2018-12-23T23:22:43.426Z,1.95
2018-12-23T23:25:30.366Z,2.05
2018-12-23T23:28:17.237Z,1.70
2018-12-23T23:31:04.155Z,1.87
2018-12-23T23:33:50.897Z,1.50
2018-12-23T23:36:37.796Z,1.60
2018-12-23T23:39:24.909Z,1.27
2018-12-23T23:42:11.755Z,1.05
2018-12-23T23:44:58.921Z,1.02
2018-12-23T23:47:45.977Z,1.05
2018-12-23T23:50:33.356Z,1.20
2018-12-23T23:53:20.651Z,1.35
2018-12-23T23:56:07.974Z,1.45
2018-12-23T23:58:55.640Z,1.30
